createdAt,value
2022-12-24T00:01:56.777Z,25.17
2022-12-24T00:04:24.145Z,17.85
2022-12-24T00:06:51.426Z,24.30
2022-12-24T00:09:18.695Z,27.50
2022-12-24T00:11:45.967Z,30.13
2022-12-24T00:14:13.201Z,27.23
2022-12-24T00:16:40.522Z,20.30
2022-12-24T00:19:07.877Z,25.90
2022-12-24T00:21:35.147Z,20.55
2022-12-24T00:24:04.326Z,21.58
2022-12-24T00:26:31.535Z,26.52
2022-12-24T00:28:58.896Z,23.95
2022-12-24T00:31:26.587Z,26.48
2022-12-24T00:33:54.243Z,18.10
2022-12-24T00:36:21.857Z,17.90
2022-12-24T00:38:49.149Z,25.40
2022-12-24T00:41:26.459Z,22.42
2022-12-24T00:43:55.089Z,26.83
2022-12-24T00:46:22.543Z,25.45
2022-12-24T00:48:49.901Z,31.73
2022-12-24T00:51:17.783Z,29.45
2022-12-24T00:53:45.011Z,20.52
2022-12-24T00:56:12.271Z,21.95
2022-12-24T00:58:39.653Z,26.10
2022-12-24T01:01:07.206Z,26.58
2022-12-24T01:03:38.186Z,34.50
2022-12-24T01:06:07.126Z,25.33
2022-12-24T01:08:34.706Z,22.42
2022-12-24T01:11:02.817Z,23.33
2022-12-24T01:13:30.099Z,23.95
2022-12-24T01:15:57.684Z,26.48
2022-12-24T01:18:26.022Z,31.55
2022-12-24T01:21:00.431Z,21.40
2022-12-24T01:23:27.996Z,25.10
2022-12-24T01:25:55.473Z,34.13
2022-12-24T01:28:22.806Z,33.40
2022-12-24T01:30:50.098Z,32.05
2022-12-24T01:33:17.426Z,24.88
2022-12-24T01:35:44.828Z,29.60
2022-12-24T01:38:12.701Z,24.30
2022-12-24T01:40:59.422Z,26.77
2022-12-24T01:43:28.590Z,31.70
2022-12-24T01:46:15.654Z,24.13
2022-12-24T01:48:48.448Z,32.42
2022-12-24T01:51:35.780Z,26.70
2022-12-24T01:54:23.704Z,32.33
2022-12-24T01:56:56.028Z,25.85
2022-12-24T01:59:23.454Z,30.52
2022-12-24T02:01:51.546Z,32.08
2022-12-24T02:04:41.681Z,33.72
2022-12-24T02:07:10.027Z,34.65
2022-12-24T02:09:37.862Z,38.60
2022-12-24T02:12:06.114Z,29.42
2022-12-24T02:14:34.060Z,29.13
2022-12-24T02:17:07.583Z,32.72
2022-12-24T02:19:35.150Z,28.42
2022-12-24T02:22:21.481Z,32.47
2022-12-24T02:24:48.679Z,29.50
2022-12-24T02:27:23.791Z,26.75
2022-12-24T02:30:13.354Z,32.95
2022-12-24T02:32:59.617Z,35.15
2022-12-24T02:35:42.410Z,32.75
2022-12-24T02:38:14.768Z,30.02
2022-12-24T02:40:45.919Z,26.70
2022-12-24T02:43:18.049Z,29.45
2022-12-24T02:45:47.025Z,29.33
2022-12-24T02:48:15.764Z,28.40
2022-12-24T02:50:55.112Z,23.15
2022-12-24T02:53:22.377Z,24.52
2022-12-24T02:55:49.603Z,27.65
2022-12-24T02:58:27.178Z,23.33
2022-12-24T03:01:17.132Z,21.58
2022-12-24T03:03:56.930Z,28.98
2022-12-24T03:06:30.259Z,23.02
2022-12-24T03:09:15.059Z,23.17
2022-12-24T03:11:45.632Z,26.58
2022-12-24T03:14:13.642Z,32.03
2022-12-24T03:16:41.037Z,28.20
2022-12-24T03:19:08.297Z,24.20
2022-12-24T03:21:36.603Z,30.17
2022-12-24T03:24:03.952Z,26.40
2022-12-24T03:26:32.096Z,34.45
2022-12-24T03:28:59.736Z,31.13
2022-12-24T03:31:27.078Z,36.00
2022-12-24T03:33:54.405Z,30.48
2022-12-24T03:36:21.713Z,31.90
2022-12-24T03:38:48.975Z,26.08
2022-12-24T03:41:16.350Z,36.35
2022-12-24T03:43:43.643Z,29.10
2022-12-24T03:46:11.009Z,28.42
2022-12-24T03:48:38.333Z,32.33
2022-12-24T03:51:05.743Z,32.70
2022-12-24T03:53:33.025Z,42.58
2022-12-24T03:56:00.337Z,32.03
2022-12-24T03:58:27.681Z,32.58
2022-12-24T04:00:54.980Z,34.35
2022-12-24T04:03:22.409Z,29.73
2022-12-24T04:05:49.729Z,27.65
2022-12-24T04:08:16.994Z,30.48
2022-12-24T04:10:44.233Z,31.98
2022-12-24T04:13:11.527Z,27.80
2022-12-24T04:15:38.814Z,35.47
2022-12-24T04:18:06.218Z,33.55
2022-12-24T04:20:33.503Z,34.95
2022-12-24T04:23:00.743Z,31.02
2022-12-24T04:25:28.096Z,30.13
2022-12-24T04:27:55.406Z,27.30
2022-12-24T04:30:22.677Z,27.88
2022-12-24T04:32:49.919Z,26.65
2022-12-24T04:35:17.173Z,24.88
2022-12-24T04:37:44.446Z,29.65
2022-12-24T04:40:11.899Z,24.33
2022-12-24T04:42:39.181Z,25.98
2022-12-24T04:45:06.636Z,25.35
2022-12-24T04:47:33.872Z,23.23
2022-12-24T04:50:01.568Z,30.55
2022-12-24T04:52:29.150Z,28.05
2022-12-24T04:54:56.647Z,27.83
2022-12-24T04:57:24.016Z,25.40
2022-12-24T04:59:51.375Z,30.27
2022-12-24T05:02:18.779Z,23.40
2022-12-24T05:04:46.153Z,33.05
2022-12-24T05:07:13.456Z,24.05
2022-12-24T05:09:40.759Z,23.38
2022-12-24T05:12:08.203Z,23.73
2022-12-24T05:14:35.758Z,20.40
2022-12-24T05:17:03.098Z,26.77
2022-12-24T05:19:30.490Z,25.95
2022-12-24T05:22:16.529Z,22.77
2022-12-24T05:25:02.498Z,28.35
2022-12-24T05:27:29.855Z,27.50
2022-12-24T05:29:57.088Z,28.77
2022-12-24T05:32:24.312Z,31.60
2022-12-24T05:34:51.588Z,29.67
2022-12-24T05:37:19.115Z,38.50
2022-12-24T05:39:46.424Z,31.33
2022-12-24T05:42:13.678Z,38.25
2022-12-24T05:44:40.948Z,35.15
2022-12-24T05:47:08.743Z,31.52
2022-12-24T05:49:36.450Z,31.83
2022-12-24T05:52:03.749Z,28.70
2022-12-24T05:54:31.063Z,30.75
2022-12-24T05:56:58.385Z,37.22
2022-12-24T05:59:25.768Z,34.65
2022-12-24T06:01:53.092Z,40.03
2022-12-24T06:04:26.496Z,41.38
2022-12-24T06:06:55.795Z,35.17
2022-12-24T06:09:23.091Z,36.15
2022-12-24T06:11:50.407Z,31.85
2022-12-24T06:14:17.695Z,41.22
2022-12-24T06:16:45.008Z,44.88
2022-12-24T06:19:12.430Z,41.75
2022-12-24T06:21:39.759Z,38.63
2022-12-24T06:24:07.129Z,44.85
2022-12-24T06:26:34.411Z,35.65
2022-12-24T06:29:01.688Z,38.50
2022-12-24T06:31:28.954Z,40.33
2022-12-24T06:33:56.409Z,42.88
2022-12-24T06:36:24.548Z,41.60
2022-12-24T06:38:52.457Z,35.38
2022-12-24T06:41:20.232Z,43.35
2022-12-24T06:43:48.253Z,40.92
2022-12-24T06:46:15.992Z,31.73
2022-12-24T06:48:44.766Z,42.17
2022-12-24T06:51:12.850Z,46.17
2022-12-24T06:53:40.615Z,47.50
2022-12-24T06:56:08.985Z,42.60
2022-12-24T06:58:36.478Z,40.65
2022-12-24T07:01:07.086Z,42.78
2022-12-24T07:03:34.682Z,38.45
2022-12-24T07:06:02.196Z,47.72
2022-12-24T07:08:29.589Z,44.33
2022-12-24T07:10:56.939Z,37.88
2022-12-24T07:13:24.259Z,40.13
2022-12-24T07:16:01.625Z,31.40
2022-12-24T07:18:29.222Z,37.50
2022-12-24T07:20:56.495Z,43.00
2022-12-24T07:23:24.094Z,38.72
2022-12-24T07:25:51.413Z,26.52
2022-12-24T07:28:23.893Z,34.22
2022-12-24T07:30:54.753Z,36.00
2022-12-24T07:33:22.041Z,25.48
2022-12-24T07:35:55.545Z,35.47
2022-12-24T07:38:23.262Z,33.80
2022-12-24T07:40:50.534Z,31.75
2022-12-24T07:43:17.750Z,42.03
2022-12-24T07:45:45.066Z,35.35
2022-12-24T07:48:12.326Z,38.38
2022-12-24T07:50:39.536Z,35.67
2022-12-24T07:53:06.828Z,42.38
2022-12-24T07:55:34.190Z,34.00
2022-12-24T07:58:01.533Z,37.00
2022-12-24T08:00:28.782Z,36.05
2022-12-24T08:02:56.241Z,37.22
2022-12-24T08:05:23.579Z,35.85
2022-12-24T08:07:50.873Z,35.03
2022-12-24T08:10:21.159Z,36.75
2022-12-24T08:12:48.623Z,42.17
2022-12-24T08:15:15.936Z,34.95
2022-12-24T08:17:43.297Z,32.85
2022-12-24T08:20:10.780Z,38.90
2022-12-24T08:22:38.117Z,42.50
2022-12-24T08:25:05.519Z,35.65
2022-12-24T08:27:32.728Z,31.33
2022-12-24T08:30:00.108Z,35.80
2022-12-24T08:32:27.338Z,34.33
2022-12-24T08:34:54.657Z,40.50
2022-12-24T08:37:21.931Z,47.20
2022-12-24T08:39:49.259Z,46.03
2022-12-24T08:42:18.434Z,31.85
2022-12-24T08:44:45.913Z,44.33
2022-12-24T08:47:13.532Z,33.33
2022-12-24T08:49:41.018Z,32.30
2022-12-24T08:52:08.261Z,31.90
2022-12-24T08:54:35.460Z,37.05
2022-12-24T08:57:02.807Z,38.15
2022-12-24T08:59:30.105Z,35.03
2022-12-24T09:01:57.541Z,40.53
2022-12-24T09:04:24.861Z,37.92
2022-12-24T09:06:52.157Z,42.38
2022-12-24T09:09:19.513Z,38.22
2022-12-24T09:11:46.838Z,28.55
2022-12-24T09:14:14.271Z,24.83
2022-12-24T09:16:41.713Z,32.45
2022-12-24T09:19:08.978Z,34.33
2022-12-24T09:21:36.357Z,28.92
2022-12-24T09:24:05.445Z,36.85
2022-12-24T09:26:32.731Z,23.17
2022-12-24T09:29:01.586Z,28.02
2022-12-24T09:31:29.281Z,29.65
2022-12-24T09:33:56.634Z,24.92
2022-12-24T09:36:23.976Z,22.05
2022-12-24T09:38:51.831Z,31.63
2022-12-24T09:41:32.693Z,23.90
2022-12-24T09:44:07.683Z,26.10
2022-12-24T09:46:37.017Z,33.13
2022-12-24T09:49:06.571Z,27.63
2022-12-24T09:51:44.879Z,25.27
2022-12-24T09:54:24.859Z,31.37
2022-12-24T09:56:52.806Z,27.45
2022-12-24T09:59:46.555Z,21.98
2022-12-24T10:02:19.130Z,26.02
2022-12-24T10:04:47.787Z,29.25
2022-12-24T10:07:22.098Z,30.37
2022-12-24T10:09:55.420Z,26.90
2022-12-24T10:12:47.601Z,24.88
2022-12-24T10:15:24.453Z,24.88
2022-12-24T10:17:56.827Z,30.27
2022-12-24T10:20:24.091Z,23.17
2022-12-24T10:22:57.121Z,34.25
2022-12-24T10:25:30.234Z,28.65
2022-12-24T10:28:00.227Z,24.33
2022-12-24T10:30:28.679Z,23.88
2022-12-24T10:32:56.369Z,27.93
2022-12-24T10:35:26.668Z,27.88
2022-12-24T10:37:54.146Z,26.38
2022-12-24T10:40:24.433Z,25.73
2022-12-24T10:42:52.023Z,25.73
2022-12-24T10:45:21.502Z,30.97
2022-12-24T10:47:50.544Z,29.52
2022-12-24T10:50:22.400Z,28.15
2022-12-24T10:52:51.998Z,21.73
2022-12-24T10:55:19.201Z,30.50
2022-12-24T10:57:48.187Z,21.50
2022-12-24T11:00:23.092Z,26.70
2022-12-24T11:03:00.132Z,27.05
2022-12-24T11:05:29.041Z,21.77
2022-12-24T11:08:02.458Z,23.17
2022-12-24T11:10:31.013Z,22.37
2022-12-24T11:13:27.875Z,21.48
2022-12-24T11:15:45.960Z,24.50
2022-12-24T11:18:15.087Z,23.35
2022-12-24T11:20:42.598Z,21.73
2022-12-24T11:23:15.644Z,31.10
2022-12-24T11:25:47.573Z,20.90
2022-12-24T11:28:22.349Z,19.73
2022-12-24T11:31:01.414Z,23.20
2022-12-24T11:33:29.615Z,20.35
2022-12-24T11:36:07.582Z,20.93
2022-12-24T11:38:36.190Z,16.13
2022-12-24T11:41:07.664Z,25.30
2022-12-24T11:43:46.641Z,15.88
2022-12-24T11:46:13.977Z,15.23
2022-12-24T11:48:41.342Z,22.30
2022-12-24T11:51:19.576Z,16.85
2022-12-24T11:53:51.360Z,18.30
2022-12-24T11:56:39.895Z,18.10
2022-12-24T11:59:13.347Z,19.35
2022-12-24T12:01:51.195Z,15.73
2022-12-24T12:04:23.037Z,21.67
2022-12-24T12:06:53.328Z,18.13
2022-12-24T12:09:27.844Z,12.05
2022-12-24T12:12:01.208Z,15.98
2022-12-24T12:14:31.143Z,19.77
2022-12-24T12:17:17.268Z,20.95
2022-12-24T12:19:56.332Z,24.55
2022-12-24T12:22:34.937Z,16.05
2022-12-24T12:25:03.660Z,20.30
2022-12-24T12:27:39.510Z,22.67
2022-12-24T12:30:16.245Z,21.05
2022-12-24T12:32:52.134Z,18.73
2022-12-24T12:35:25.735Z,16.92
2022-12-24T12:37:58.565Z,20.42
2022-12-24T12:40:33.197Z,20.60
2022-12-24T12:43:10.866Z,20.48
2022-12-24T12:45:50.324Z,20.38
2022-12-24T12:48:30.873Z,21.50
2022-12-24T12:51:03.156Z,14.80
2022-12-24T12:53:51.486Z,19.80
2022-12-24T12:56:27.575Z,16.60
2022-12-24T12:59:00.216Z,21.33
2022-12-24T13:01:33.181Z,18.75
2022-12-24T13:04:12.688Z,18.02
2022-12-24T13:06:52.359Z,18.20
2022-12-24T13:09:38.775Z,13.88
2022-12-24T13:12:14.430Z,23.17
2022-12-24T13:14:44.732Z,21.85
2022-12-24T13:17:15.526Z,18.85
2022-12-24T13:19:55.474Z,20.10
2022-12-24T13:22:23.388Z,27.75
2022-12-24T13:24:56.631Z,12.88
2022-12-24T13:27:25.731Z,20.75
2022-12-24T13:30:05.172Z,12.85
2022-12-24T13:32:41.244Z,17.10
2022-12-24T13:35:20.899Z,20.33
2022-12-24T13:37:48.871Z,19.33
2022-12-24T13:40:16.240Z,18.85
2022-12-24T13:42:49.762Z,20.60
2022-12-24T13:45:32.301Z,20.83
2022-12-24T13:47:59.824Z,14.50
2022-12-24T13:50:29.771Z,15.07
2022-12-24T13:52:57.118Z,20.83
2022-12-24T13:55:24.511Z,19.50
2022-12-24T13:58:03.618Z,19.57
2022-12-24T14:00:42.292Z,21.80
2022-12-24T14:03:15.489Z,23.33
2022-12-24T14:05:51.335Z,19.25
2022-12-24T14:08:24.683Z,21.17
2022-12-24T14:11:06.886Z,22.23
2022-12-24T14:13:40.195Z,19.92
2022-12-24T14:16:16.652Z,24.70
2022-12-24T14:18:46.153Z,19.45
2022-12-24T14:21:18.238Z,19.63
2022-12-24T14:23:59.348Z,21.80
2022-12-24T14:26:31.618Z,23.67
2022-12-24T14:29:04.105Z,18.80
2022-12-24T14:31:31.484Z,19.67
2022-12-24T14:34:09.700Z,23.70
2022-12-24T14:36:37.550Z,22.47
2022-12-24T14:39:06.613Z,25.30
2022-12-24T14:41:40.145Z,25.58
2022-12-24T14:44:22.758Z,23.60
2022-12-24T14:46:58.917Z,18.58
2022-12-24T14:49:32.411Z,25.13
2022-12-24T14:52:45.985Z,23.27
2022-12-24T14:55:24.643Z,23.40
2022-12-24T14:57:51.904Z,22.13
2022-12-24T15:00:21.035Z,28.48
2022-12-24T15:02:48.405Z,21.67
2022-12-24T15:05:19.675Z,22.25
2022-12-24T15:07:49.104Z,23.60
2022-12-24T15:10:36.590Z,20.67
2022-12-24T15:13:09.415Z,20.25
2022-12-24T15:15:37.198Z,23.37
2022-12-24T15:18:05.177Z,22.45
2022-12-24T15:20:32.599Z,24.50
2022-12-24T15:23:00.100Z,26.17
2022-12-24T15:25:29.234Z,26.23
2022-12-24T15:27:56.643Z,25.13
2022-12-24T15:30:25.402Z,24.92
2022-12-24T15:32:54.180Z,24.35
2022-12-24T15:35:31.474Z,29.88
2022-12-24T15:37:59.527Z,29.65
2022-12-24T15:40:26.876Z,27.63
2022-12-24T15:42:54.379Z,27.95
2022-12-24T15:45:27.647Z,31.85
2022-12-24T15:48:00.052Z,34.30
2022-12-24T15:50:44.652Z,31.25
2022-12-24T15:53:22.357Z,28.90
2022-12-24T15:56:10.368Z,37.47
2022-12-24T15:58:42.293Z,33.67
2022-12-24T16:01:09.879Z,31.85
2022-12-24T16:03:38.890Z,23.75
2022-12-24T16:06:08.010Z,37.20
2022-12-24T16:08:38.455Z,30.20
2022-12-24T16:11:10.696Z,29.58
2022-12-24T16:13:51.052Z,32.42
2022-12-24T16:16:23.203Z,33.55
2022-12-24T16:18:55.685Z,27.50
2022-12-24T16:21:25.980Z,37.47
2022-12-24T16:23:55.666Z,27.75
2022-12-24T16:26:23.030Z,27.83
2022-12-24T16:28:50.691Z,26.42
2022-12-24T16:31:30.010Z,33.77
2022-12-24T16:33:58.726Z,27.08
2022-12-24T16:36:26.156Z,32.95
2022-12-24T16:39:31.947Z,33.08
2022-12-24T16:42:19.221Z,33.17
2022-12-24T16:44:46.922Z,35.23
2022-12-24T16:47:28.630Z,31.55
2022-12-24T16:49:57.166Z,38.60
2022-12-24T16:52:26.375Z,35.92
2022-12-24T16:54:53.796Z,31.88
2022-12-24T16:57:21.820Z,33.73
2022-12-24T16:59:49.150Z,39.08
2022-12-24T17:02:17.906Z,37.47
2022-12-24T17:04:45.712Z,31.58
2022-12-24T17:07:14.288Z,37.53
2022-12-24T17:09:41.561Z,30.13
2022-12-24T17:12:09.233Z,38.38
2022-12-24T17:14:36.980Z,29.65
2022-12-24T17:17:05.141Z,38.33
2022-12-24T17:19:32.491Z,32.55
2022-12-24T17:21:59.810Z,32.43
2022-12-24T17:24:27.086Z,30.25
2022-12-24T17:26:54.438Z,34.03
2022-12-24T17:29:21.674Z,35.60
2022-12-24T17:31:48.990Z,38.40
2022-12-24T17:34:16.252Z,27.53
2022-12-24T17:36:43.900Z,33.38
2022-12-24T17:39:11.215Z,30.13
2022-12-24T17:41:38.618Z,30.52
2022-12-24T17:44:08.839Z,37.60
2022-12-24T17:46:36.119Z,53.78
2022-12-24T17:49:03.448Z,33.53
2022-12-24T17:51:33.332Z,41.15
2022-12-24T17:54:01.240Z,35.75
2022-12-24T17:56:28.867Z,31.98
2022-12-24T17:58:56.215Z,32.47
2022-12-24T18:01:24.708Z,39.38
2022-12-24T18:03:53.246Z,40.22
2022-12-24T18:06:21.224Z,39.72
2022-12-24T18:08:48.559Z,32.65
2022-12-24T18:11:23.415Z,36.70
2022-12-24T18:13:51.117Z,36.05
2022-12-24T18:16:20.482Z,33.17
2022-12-24T18:18:48.342Z,45.40
2022-12-24T18:21:16.284Z,37.05
2022-12-24T18:23:44.739Z,38.88
2022-12-24T18:26:12.533Z,37.92
2022-12-24T18:28:39.892Z,34.22
2022-12-24T18:31:08.648Z,32.83
2022-12-24T18:33:36.636Z,35.22
2022-12-24T18:36:04.413Z,36.53
2022-12-24T18:38:32.159Z,37.88
2022-12-24T18:41:03.811Z,30.25
2022-12-24T18:43:31.195Z,32.75
2022-12-24T18:45:58.428Z,36.70
2022-12-24T18:48:25.857Z,43.30
2022-12-24T18:50:57.280Z,40.15
2022-12-24T18:53:24.925Z,32.55
2022-12-24T18:55:52.447Z,34.83
2022-12-24T18:58:20.302Z,29.50
2022-12-24T19:00:47.734Z,38.55
2022-12-24T19:03:16.773Z,38.47
2022-12-24T19:05:44.201Z,45.42
2022-12-24T19:08:46.981Z,32.17
2022-12-24T19:10:58.918Z,38.92
2022-12-24T19:13:26.245Z,33.43
2022-12-24T19:15:53.506Z,37.53
2022-12-24T19:18:20.852Z,33.03
2022-12-24T19:20:48.198Z,34.90
2022-12-24T19:23:15.524Z,30.55
2022-12-24T19:25:42.801Z,36.65
2022-12-24T19:28:10.131Z,38.55
2022-12-24T19:30:38.108Z,34.85
2022-12-24T19:33:05.908Z,32.08
2022-12-24T19:35:33.177Z,30.17
2022-12-24T19:38:00.628Z,38.83
2022-12-24T19:40:28.193Z,31.13
2022-12-24T19:42:55.604Z,29.35
2022-12-24T19:45:23.764Z,38.28
2022-12-24T19:47:52.001Z,26.65
2022-12-24T19:50:20.123Z,28.93
2022-12-24T19:52:47.867Z,37.33
2022-12-24T19:55:15.270Z,35.67
2022-12-24T19:57:42.664Z,35.13
2022-12-24T20:00:10.667Z,36.47
2022-12-24T20:02:41.375Z,28.02
2022-12-24T20:05:08.796Z,31.95
2022-12-24T20:07:36.195Z,30.95
2022-12-24T20:10:03.519Z,33.88
2022-12-24T20:12:31.722Z,39.97
2022-12-24T20:14:59.018Z,33.28
2022-12-24T20:17:26.335Z,41.15
2022-12-24T20:19:53.997Z,34.55
2022-12-24T20:22:21.263Z,31.17
2022-12-24T20:24:48.614Z,30.67
2022-12-24T20:27:15.890Z,33.92
2022-12-24T20:29:44.392Z,32.53
2022-12-24T20:32:11.630Z,36.20
2022-12-24T20:34:38.897Z,33.80
2022-12-24T20:37:06.256Z,30.10
2022-12-24T20:39:33.591Z,35.00
2022-12-24T20:42:01.737Z,33.65
2022-12-24T20:44:29.085Z,34.22
2022-12-24T20:46:56.360Z,34.13
2022-12-24T20:49:23.689Z,35.42
2022-12-24T20:51:50.998Z,34.22
2022-12-24T20:54:19.997Z,33.65
2022-12-24T20:56:57.719Z,31.45
2022-12-24T20:59:26.255Z,33.05
2022-12-24T21:01:53.763Z,36.95
2022-12-24T21:04:21.197Z,36.40
2022-12-24T21:06:48.522Z,30.65
2022-12-24T21:09:15.865Z,46.38
2022-12-24T21:11:49.099Z,33.03
2022-12-24T21:14:17.438Z,33.45
2022-12-24T21:16:45.244Z,33.35
2022-12-24T21:19:15.165Z,39.70
2022-12-24T21:21:43.192Z,26.98
2022-12-24T21:24:11.008Z,39.72
2022-12-24T21:26:38.516Z,38.58
2022-12-24T21:29:06.829Z,30.38
2022-12-24T21:31:34.486Z,35.30
2022-12-24T21:34:01.793Z,32.55
2022-12-24T21:36:29.047Z,34.25
2022-12-24T21:38:56.377Z,37.58
2022-12-24T21:41:25.764Z,36.25
2022-12-24T21:43:53.129Z,33.92
2022-12-24T21:46:23.175Z,33.38
2022-12-24T21:49:10.407Z,34.45
2022-12-24T21:51:38.911Z,35.55
2022-12-24T21:54:27.051Z,37.22
2022-12-24T21:57:14.059Z,33.60
2022-12-24T21:59:42.342Z,35.72
2022-12-24T22:02:14.130Z,33.42
2022-12-24T22:04:41.902Z,39.95
2022-12-24T22:07:32.420Z,31.75
2022-12-24T22:10:18.370Z,31.10
2022-12-24T22:12:45.627Z,35.10
2022-12-24T22:15:13.076Z,38.70
2022-12-24T22:17:40.554Z,33.55
2022-12-24T22:20:08.146Z,38.75
2022-12-24T22:22:35.446Z,37.40
2022-12-24T22:25:02.770Z,29.13
2022-12-24T22:27:30.124Z,34.83
2022-12-24T22:29:58.736Z,34.47
2022-12-24T22:32:26.044Z,32.08
2022-12-24T22:34:53.732Z,32.22
2022-12-24T22:37:21.192Z,26.98
2022-12-24T22:39:49.304Z,32.63
2022-12-24T22:42:17.709Z,28.08
2022-12-24T22:44:44.942Z,36.05
2022-12-24T22:47:12.297Z,24.10
2022-12-24T22:49:39.618Z,31.55
2022-12-24T22:52:06.898Z,31.45
2022-12-24T22:54:34.252Z,38.10
2022-12-24T22:57:01.526Z,32.60
2022-12-24T22:59:28.849Z,39.08
2022-12-24T23:01:57.017Z,29.42
2022-12-24T23:04:24.458Z,35.63
2022-12-24T23:06:51.947Z,30.38
2022-12-24T23:09:19.272Z,33.22
2022-12-24T23:11:46.638Z,28.88
2022-12-24T23:14:39.274Z,30.40
2022-12-24T23:17:07.002Z,35.10
2022-12-24T23:19:35.104Z,30.42
2022-12-24T23:22:03.443Z,33.40
2022-12-24T23:24:30.805Z,31.10
2022-12-24T23:26:58.849Z,29.45
2022-12-24T23:29:26.229Z,25.90
2022-12-24T23:31:53.471Z,37.00
2022-12-24T23:34:20.741Z,29.55
2022-12-24T23:36:48.041Z,31.00
2022-12-24T23:39:15.338Z,27.85
2022-12-24T23:41:42.667Z,28.50
2022-12-24T23:44:09.997Z,29.60
2022-12-24T23:46:37.265Z,24.40
2022-12-24T23:49:04.553Z,26.20
2022-12-24T23:51:31.858Z,24.23
2022-12-24T23:53:59.146Z,22.73
2022-12-24T23:56:26.518Z,24.60
2022-12-24T23:58:53.950Z,25.67
